createdAt,value
2023-03-22T00:01:31.133Z,9.80
2023-03-22T00:04:32.321Z,9.80
2023-03-22T00:07:33.483Z,10.00
2023-03-22T00:10:37.986Z,10.10
2023-03-22T00:13:39.513Z,10.30
2023-03-22T00:16:40.203Z,10.30
2023-03-22T00:19:42.332Z,10.30
2023-03-22T00:22:44.016Z,10.20
2023-03-22T00:25:46.474Z,10.20
2023-03-22T00:28:47.438Z,10.10
2023-03-22T00:31:50.344Z,10.00
2023-03-22T00:34:51.559Z,9.90
2023-03-22T00:37:52.407Z,9.80
2023-03-22T00:40:53.055Z,9.70
2023-03-22T00:43:54.355Z,9.60
2023-03-22T00:46:55.570Z,9.50
2023-03-22T00:49:56.802Z,9.60
2023-03-22T00:52:58.790Z,9.60
2023-03-22T00:55:59.885Z,9.60
2023-03-22T00:59:03.521Z,9.70
2023-03-22T01:02:05.550Z,9.70
2023-03-22T01:05:07.665Z,9.70
2023-03-22T01:08:09.029Z,9.60
2023-03-22T01:11:10.137Z,9.60
2023-03-22T01:14:14.086Z,9.50
2023-03-22T01:17:15.241Z,9.40
2023-03-22T01:20:16.298Z,9.30
2023-03-22T01:23:17.508Z,9.30
2023-03-22T01:26:18.538Z,9.30
2023-03-22T01:29:22.087Z,9.30
2023-03-22T01:32:23.066Z,9.20
2023-03-22T01:35:24.683Z,9.20
2023-03-22T01:38:25.856Z,9.10
2023-03-22T01:41:35.941Z,9.10
2023-03-22T01:45:13.744Z,8.70
2023-03-22T01:48:37.452Z,8.50
2023-03-22T01:51:42.689Z,8.50
2023-03-22T01:55:01.429Z,8.20
2023-03-22T01:58:18.092Z,7.90
2023-03-22T02:01:28.472Z,7.80
2023-03-22T02:04:38.421Z,7.90
2023-03-22T02:07:43.710Z,7.80
2023-03-22T02:10:44.861Z,7.50
2023-03-22T02:14:10.063Z,7.40
2023-03-22T02:17:46.472Z,7.40
2023-03-22T02:21:02.615Z,7.40
2023-03-22T02:24:30.067Z,7.40
2023-03-22T02:28:08.653Z,7.50
2023-03-22T02:31:45.391Z,8.00
2023-03-22T02:35:15.563Z,8.00
2023-03-22T02:38:46.047Z,8.10
2023-03-22T02:42:02.986Z,8.10
2023-03-22T02:45:27.950Z,8.10
2023-03-22T02:49:12.793Z,8.10
2023-03-22T02:52:32.545Z,8.10
2023-03-22T02:55:48.338Z,8.00
2023-03-22T02:58:55.072Z,7.90
2023-03-22T03:02:00.927Z,7.80
2023-03-22T03:05:03.651Z,7.70
2023-03-22T03:08:06.707Z,7.60
2023-03-22T03:11:10.530Z,7.50
2023-03-22T03:14:28.859Z,7.30
2023-03-22T03:18:00.554Z,7.10
2023-03-22T03:21:30.245Z,7.00
2023-03-22T03:24:49.198Z,6.80
2023-03-22T03:28:11.555Z,6.70
2023-03-22T03:31:40.942Z,6.70
2023-03-22T03:34:59.864Z,6.90
2023-03-22T03:38:12.222Z,7.10
2023-03-22T03:41:20.540Z,7.30
2023-03-22T03:44:25.051Z,7.60
2023-03-22T03:47:28.972Z,7.70
2023-03-22T03:50:31.329Z,7.60
2023-03-22T03:53:32.562Z,7.40
2023-03-22T03:56:33.802Z,7.30
2023-03-22T03:59:35.014Z,7.30
2023-03-22T04:02:44.698Z,7.20
2023-03-22T04:06:00.012Z,7.30
2023-03-22T04:09:03.459Z,7.30
2023-03-22T04:12:09.925Z,7.30
2023-03-22T04:15:12.577Z,7.40
2023-03-22T04:18:14.769Z,7.40
2023-03-22T04:21:16.660Z,7.40
2023-03-22T04:24:31.728Z,7.50
2023-03-22T04:27:32.751Z,7.50
2023-03-22T04:30:37.562Z,7.40
2023-03-22T04:33:56.845Z,7.40
2023-03-22T04:37:31.755Z,7.20
2023-03-22T04:40:53.609Z,7.00
2023-03-22T04:44:06.978Z,7.00
2023-03-22T04:47:12.102Z,6.80
2023-03-22T04:50:13.234Z,6.40
2023-03-22T04:53:27.699Z,6.10
2023-03-22T04:56:33.548Z,6.00
2023-03-22T04:59:35.401Z,5.80
2023-03-22T05:02:41.122Z,6.30
2023-03-22T05:05:59.038Z,6.70
2023-03-22T05:09:09.330Z,6.80
2023-03-22T05:12:10.593Z,6.90
2023-03-22T05:15:21.853Z,6.80
2023-03-22T05:18:26.520Z,6.90
2023-03-22T05:21:36.981Z,6.80
2023-03-22T05:24:39.792Z,6.70
2023-03-22T05:27:45.320Z,6.60
2023-03-22T05:31:08.505Z,6.30
2023-03-22T05:34:20.441Z,6.20
2023-03-22T05:37:22.471Z,6.20
2023-03-22T05:40:28.364Z,6.20
2023-03-22T05:43:29.860Z,6.30
2023-03-22T05:46:31.124Z,6.40
2023-03-22T05:49:50.695Z,6.40
2023-03-22T05:52:56.330Z,6.10
2023-03-22T05:56:10.096Z,5.90
2023-03-22T05:59:12.910Z,6.20
2023-03-22T06:02:14.704Z,6.30
2023-03-22T06:05:17.669Z,6.40
2023-03-22T06:08:19.744Z,7.00
2023-03-22T06:11:20.599Z,7.30
2023-03-22T06:14:21.945Z,7.30
2023-03-22T06:17:46.368Z,7.40
2023-03-22T06:20:50.952Z,7.40
2023-03-22T06:23:55.305Z,7.60
2023-03-22T06:26:58.219Z,7.30
2023-03-22T06:29:59.072Z,7.40
2023-03-22T06:33:04.473Z,7.60
2023-03-22T06:36:08.498Z,7.70
2023-03-22T06:39:25.774Z,7.80
2023-03-22T06:42:27.709Z,7.90
2023-03-22T06:45:38.839Z,8.00
2023-03-22T06:48:40.706Z,8.20
2023-03-22T06:51:46.319Z,8.30
2023-03-22T06:54:47.681Z,8.50
2023-03-22T06:57:48.502Z,8.70
2023-03-22T07:00:49.294Z,8.80
2023-03-22T07:03:52.719Z,8.90
2023-03-22T07:06:57.398Z,9.00
2023-03-22T07:10:00.733Z,9.20
2023-03-22T07:13:03.351Z,9.30
2023-03-22T07:16:05.912Z,9.50
2023-03-22T07:19:13.937Z,9.70
2023-03-22T07:22:15.601Z,9.80
2023-03-22T07:25:17.514Z,9.90
2023-03-22T07:28:19.521Z,10.10
2023-03-22T07:31:20.535Z,10.20
2023-03-22T07:34:31.398Z,10.40
2023-03-22T07:37:38.441Z,10.30
2023-03-22T07:40:45.221Z,10.40
2023-03-22T07:43:55.229Z,10.50
2023-03-22T07:46:57.670Z,10.60
2023-03-22T07:50:05.450Z,10.80
2023-03-22T07:53:07.487Z,11.00
2023-03-22T07:56:09.465Z,11.10
2023-03-22T07:59:11.262Z,11.40
2023-03-22T08:02:12.190Z,11.40
2023-03-22T08:05:19.248Z,11.50
2023-03-22T08:08:26.589Z,11.70
2023-03-22T08:11:31.086Z,11.70
2023-03-22T08:14:36.566Z,11.90
2023-03-22T08:17:42.419Z,11.90
2023-03-22T08:20:59.211Z,12.00
2023-03-22T08:24:04.060Z,11.70
2023-03-22T08:27:14.300Z,12.00
2023-03-22T08:30:22.537Z,12.10
2023-03-22T08:33:23.885Z,11.90
2023-03-22T08:36:27.301Z,12.10
2023-03-22T08:39:34.535Z,12.30
2023-03-22T08:42:57.166Z,12.80
2023-03-22T08:45:59.095Z,13.10
2023-03-22T08:49:02.402Z,13.20
2023-03-22T08:52:14.126Z,13.50
2023-03-22T08:55:26.318Z,13.60
2023-03-22T08:58:46.859Z,13.20
2023-03-22T09:02:07.050Z,13.40
2023-03-22T09:05:09.062Z,13.30
2023-03-22T09:08:18.661Z,13.30
2023-03-22T09:11:23.956Z,13.60
2023-03-22T09:14:25.023Z,13.60
2023-03-22T09:17:27.475Z,13.90
2023-03-22T09:20:28.391Z,14.90
2023-03-22T09:23:32.267Z,16.00
2023-03-22T09:26:34.482Z,16.70
2023-03-22T09:29:35.659Z,17.40
2023-03-22T09:32:40.618Z,17.10
2023-03-22T09:35:43.803Z,16.80
2023-03-22T09:38:50.123Z,18.00
2023-03-22T09:42:00.794Z,18.30
2023-03-22T09:45:05.563Z,18.40
2023-03-22T09:48:31.944Z,18.70
2023-03-22T09:51:49.623Z,19.00
2023-03-22T09:54:52.750Z,18.70
2023-03-22T09:58:29.233Z,18.90
2023-03-22T10:02:05.075Z,19.40
2023-03-22T10:05:30.733Z,19.70
2023-03-22T10:09:10.501Z,19.80
2023-03-22T10:12:38.679Z,19.30
2023-03-22T10:15:45.948Z,19.90
2023-03-22T10:18:52.308Z,20.00
2023-03-22T10:21:59.009Z,20.10
2023-03-22T10:25:01.504Z,20.90
2023-03-22T10:28:10.452Z,21.10
2023-03-22T10:31:18.044Z,21.60
2023-03-22T10:34:31.235Z,22.20
2023-03-22T10:37:35.973Z,22.90
2023-03-22T10:40:40.567Z,22.50
2023-03-22T10:43:44.026Z,23.00
2023-03-22T10:46:49.697Z,23.40
2023-03-22T10:49:56.502Z,24.10
2023-03-22T10:53:18.074Z,23.60
2023-03-22T10:56:21.096Z,24.40
2023-03-22T10:59:51.945Z,25.10
2023-03-22T11:03:00.606Z,24.50
2023-03-22T11:06:26.020Z,23.30
2023-03-22T11:09:26.704Z,21.10
2023-03-22T11:12:27.861Z,22.00
2023-03-22T11:15:35.838Z,22.90
2023-03-22T11:18:36.723Z,21.80
2023-03-22T11:21:37.918Z,21.90
2023-03-22T11:24:39.030Z,21.40
2023-03-22T11:27:56.403Z,22.40
2023-03-22T11:31:19.474Z,22.60
2023-03-22T11:34:24.713Z,22.60
2023-03-22T11:37:25.629Z,22.30
2023-03-22T11:40:37.707Z,22.30
2023-03-22T11:43:48.607Z,21.40
2023-03-22T11:46:58.004Z,21.20
2023-03-22T11:50:09.413Z,22.40
2023-03-22T11:53:23.388Z,23.10
2023-03-22T11:56:30.420Z,21.90
2023-03-22T11:59:39.393Z,23.00
2023-03-22T12:03:13.943Z,22.40
2023-03-22T12:06:28.690Z,21.80
2023-03-22T12:09:45.162Z,22.80
2023-03-22T12:13:00.515Z,22.10
2023-03-22T12:16:07.599Z,22.00
2023-03-22T12:19:23.808Z,22.40
2023-03-22T12:22:51.202Z,21.90
2023-03-22T12:26:18.618Z,23.60
2023-03-22T12:29:21.288Z,24.50
2023-03-22T12:32:32.510Z,23.00
2023-03-22T12:35:38.308Z,23.30
2023-03-22T12:38:50.040Z,22.40
2023-03-22T12:41:56.102Z,21.60
2023-03-22T12:45:12.990Z,22.50
2023-03-22T12:48:31.040Z,22.00
2023-03-22T12:51:31.943Z,23.60
2023-03-22T12:54:33.561Z,23.50
2023-03-22T12:57:34.618Z,24.60
2023-03-22T13:00:49.376Z,27.60
2023-03-22T13:03:54.993Z,26.60
2023-03-22T13:06:58.925Z,26.20
2023-03-22T13:10:21.240Z,27.20
2023-03-22T13:13:22.166Z,24.60
2023-03-22T13:16:47.590Z,25.40
2023-03-22T13:20:23.804Z,22.80
2023-03-22T13:23:28.265Z,25.10
2023-03-22T13:26:49.344Z,26.00
2023-03-22T13:29:54.198Z,23.70
2023-03-22T13:33:09.979Z,26.60
2023-03-22T13:36:25.696Z,26.60
2023-03-22T13:39:34.744Z,25.00
2023-03-22T13:42:40.178Z,26.40
2023-03-22T13:46:08.249Z,25.90
2023-03-22T13:49:44.819Z,27.20
2023-03-22T13:53:16.302Z,27.30
2023-03-22T13:56:42.381Z,29.10
2023-03-22T14:00:15.545Z,26.20
2023-03-22T14:03:40.871Z,25.10
2023-03-22T14:07:04.436Z,25.80
2023-03-22T14:10:44.520Z,27.50
2023-03-22T14:14:04.292Z,28.70
2023-03-22T14:17:27.336Z,30.10
2023-03-22T14:20:37.019Z,29.90
2023-03-22T14:54:44.448Z,31.70
2023-03-22T14:57:59.001Z,32.90
2023-03-22T15:01:09.170Z,34.10
2023-03-22T15:04:14.176Z,31.70
2023-03-22T15:07:19.794Z,32.20
2023-03-22T15:10:27.332Z,32.80
2023-03-22T15:13:30.296Z,33.40
2023-03-22T15:16:36.163Z,32.60
2023-03-22T15:19:52.552Z,32.60
2023-03-22T15:22:59.514Z,32.30
2023-03-22T15:26:04.984Z,30.60
2023-03-22T15:29:09.144Z,30.50
2023-03-22T15:32:25.310Z,29.50
2023-03-22T15:35:27.130Z,30.40
2023-03-22T15:38:46.653Z,28.90
2023-03-22T15:41:59.523Z,29.80
2023-03-22T15:45:12.678Z,28.40
2023-03-22T15:48:20.665Z,27.20
2023-03-22T15:51:30.648Z,27.60
2023-03-22T15:54:34.268Z,28.10
2023-03-22T15:58:00.989Z,26.60
2023-03-22T16:01:18.268Z,25.50
2023-03-22T16:04:31.612Z,25.30
2023-03-22T16:07:32.459Z,24.50
2023-03-22T16:10:36.011Z,25.00
2023-03-22T16:13:37.333Z,25.30
2023-03-22T16:16:38.694Z,25.30
2023-03-22T16:19:39.599Z,25.10
2023-03-22T16:22:43.652Z,24.40
2023-03-22T16:25:45.237Z,22.10
2023-03-22T16:28:46.625Z,21.10
2023-03-22T16:31:51.065Z,20.50
2023-03-22T16:34:57.184Z,19.60
2023-03-22T16:37:58.059Z,19.20
2023-03-22T16:40:59.013Z,18.90
2023-03-22T16:44:00.574Z,18.70
2023-03-22T16:47:01.452Z,18.40
2023-03-22T16:50:02.230Z,18.20
2023-03-22T16:53:03.665Z,17.90
2023-03-22T16:56:04.944Z,17.70
2023-03-22T16:59:06.144Z,17.50
2023-03-22T17:02:20.164Z,17.40
2023-03-22T17:05:23.417Z,17.30
2023-03-22T17:08:24.831Z,17.20
2023-03-22T17:11:29.707Z,17.00
2023-03-22T17:14:30.820Z,16.60
2023-03-22T17:17:32.103Z,16.50
2023-03-22T17:20:34.244Z,16.30
2023-03-22T17:23:35.207Z,16.10
2023-03-22T17:26:36.133Z,15.60
2023-03-22T17:29:38.368Z,15.40
2023-03-22T17:35:47.910Z,14.90
2023-03-22T17:41:50.585Z,14.60
2023-03-22T17:44:52.576Z,14.50
2023-03-22T17:47:54.201Z,14.40
2023-03-22T17:50:56.022Z,14.30
2023-03-22T17:57:41.256Z,14.00
2023-03-22T18:00:27.276Z,14.00
2023-03-22T18:03:28.422Z,13.80
2023-03-22T18:06:29.481Z,13.80
2023-03-22T18:09:31.291Z,13.50
2023-03-22T18:12:32.992Z,13.20
2023-03-22T18:15:34.069Z,13.10
2023-03-22T18:18:34.986Z,13.30
2023-03-22T18:21:36.515Z,13.30
2023-03-22T18:24:37.354Z,13.20
2023-03-22T18:27:47.423Z,13.20
2023-03-22T18:30:51.868Z,13.10
2023-03-22T18:33:54.061Z,13.10
2023-03-22T18:36:55.157Z,12.80
2023-03-22T18:40:26.718Z,12.50
2023-03-22T18:43:18.073Z,12.30
2023-03-22T18:46:19.885Z,12.20
2023-03-22T18:49:22.320Z,12.20
2023-03-22T18:52:44.229Z,12.10
2023-03-22T18:55:51.584Z,12.10
2023-03-22T18:58:55.137Z,12.10
2023-03-22T19:04:57.911Z,12.10
2023-03-22T19:08:14.527Z,12.00
2023-03-22T19:11:20.976Z,12.20
2023-03-22T19:15:05.696Z,12.40
2023-03-22T19:17:43.435Z,13.10
2023-03-22T19:23:50.061Z,12.50
2023-03-22T19:27:01.678Z,12.50
2023-03-22T19:30:13.955Z,12.90
2023-03-22T19:33:34.713Z,13.20
2023-03-22T19:36:37.099Z,13.30
2023-03-22T19:39:38.365Z,13.10
2023-03-22T19:42:39.718Z,13.10
2023-03-22T19:45:45.808Z,13.20
2023-03-22T19:48:47.098Z,13.10
2023-03-22T19:51:51.173Z,13.00
2023-03-22T19:54:52.812Z,13.10
2023-03-22T19:57:56.086Z,13.00
2023-03-22T20:00:59.308Z,13.10
2023-03-22T20:04:01.993Z,13.00
2023-03-22T20:07:03.158Z,13.00
2023-03-22T20:10:05.928Z,13.00
2023-03-22T20:13:07.748Z,12.40
2023-03-22T20:16:09.267Z,12.60
2023-03-22T20:19:10.905Z,12.60
2023-03-22T20:22:12.081Z,12.30
2023-03-22T20:25:12.944Z,12.10
2023-03-22T20:28:13.783Z,11.90
2023-03-22T20:31:17.404Z,11.60
2023-03-22T20:34:18.394Z,11.80
2023-03-22T20:37:22.458Z,11.60
2023-03-22T20:40:24.566Z,11.60
2023-03-22T20:43:25.555Z,11.80
2023-03-22T20:46:27.305Z,11.90
2023-03-22T20:49:28.516Z,11.80
2023-03-22T20:52:29.751Z,11.70
2023-03-22T20:55:31.508Z,11.50
2023-03-22T20:58:32.534Z,11.40
2023-03-22T21:01:33.630Z,11.30
2023-03-22T21:04:34.576Z,11.40
2023-03-22T21:07:35.519Z,11.40
2023-03-22T21:10:37.289Z,11.40
2023-03-22T21:13:40.493Z,11.60
2023-03-22T21:16:44.311Z,11.70
2023-03-22T21:19:46.599Z,11.60
2023-03-22T21:22:47.941Z,11.70
2023-03-22T21:25:59.271Z,11.60
2023-03-22T21:29:00.590Z,11.50
2023-03-22T21:32:02.060Z,11.30
2023-03-22T21:35:02.974Z,11.10
2023-03-22T21:38:10.095Z,10.90
2023-03-22T21:41:10.855Z,11.00
2023-03-22T21:44:12.532Z,11.10
2023-03-22T21:47:21.123Z,11.10
2023-03-22T21:50:22.163Z,11.10
2023-03-22T21:53:26.034Z,11.10
2023-03-22T21:56:29.560Z,11.10
2023-03-22T21:59:30.302Z,11.00
2023-03-22T22:02:31.844Z,10.40
2023-03-22T22:05:34.966Z,10.20
2023-03-22T22:08:36.491Z,10.30
2023-03-22T22:11:39.360Z,10.20
2023-03-22T22:14:40.344Z,10.40
2023-03-22T22:17:41.603Z,11.00
2023-03-22T22:20:44.380Z,11.00
2023-03-22T22:23:47.180Z,11.00
2023-03-22T22:26:48.360Z,10.80
2023-03-22T22:29:49.216Z,10.80
2023-03-22T22:32:50.370Z,10.80
2023-03-22T22:35:51.499Z,10.70
2023-03-22T22:38:52.492Z,10.50
2023-03-22T22:41:53.333Z,10.30
2023-03-22T22:44:54.424Z,10.20
2023-03-22T22:47:55.201Z,10.30
2023-03-22T22:51:12.025Z,10.70
2023-03-22T22:54:13.035Z,10.90
2023-03-22T22:57:13.908Z,11.20
2023-03-22T23:00:16.820Z,11.60
2023-03-22T23:03:17.576Z,11.70
2023-03-22T23:06:22.567Z,11.50
2023-03-22T23:09:25.196Z,11.30
2023-03-22T23:12:27.567Z,11.40
2023-03-22T23:15:28.715Z,11.40
2023-03-22T23:18:30.187Z,11.30
2023-03-22T23:21:41.962Z,11.30
2023-03-22T23:24:43.789Z,11.20
2023-03-22T23:27:44.756Z,11.20
2023-03-22T23:30:51.887Z,11.10
2023-03-22T23:33:53.069Z,10.90
2023-03-22T23:36:54.666Z,10.60
2023-03-22T23:39:55.941Z,10.70
2023-03-22T23:42:57.612Z,10.60
2023-03-22T23:45:58.925Z,10.70
2023-03-22T23:49:00.442Z,10.90
2023-03-22T23:52:01.540Z,10.90
2023-03-22T23:55:03.985Z,10.60
2023-03-22T23:58:05.071Z,10.70
